createdAt,value
2022-11-15T00:00:06.868Z,14.60
2022-11-15T00:03:08.561Z,14.40
2022-11-15T00:06:10.604Z,13.45
2022-11-15T00:09:12.263Z,12.45
2022-11-15T00:12:13.969Z,13.35
2022-11-15T00:15:15.758Z,11.48
2022-11-15T00:18:18.023Z,12.20
2022-11-15T00:21:19.775Z,11.38
2022-11-15T00:24:21.494Z,12.15
2022-11-15T00:27:23.121Z,12.63
2022-11-15T00:30:25.511Z,13.60
2022-11-15T00:33:27.224Z,14.00
2022-11-15T00:36:28.974Z,12.95
2022-11-15T00:39:30.666Z,12.60
2022-11-15T00:42:32.361Z,12.82
2022-11-15T00:45:34.117Z,15.10
2022-11-15T00:48:35.994Z,14.10
2022-11-15T00:51:37.747Z,12.93
2022-11-15T00:54:39.456Z,12.73
2022-11-15T00:57:41.201Z,12.35
2022-11-15T01:00:42.858Z,11.57
2022-11-15T01:03:44.876Z,12.43
2022-11-15T01:06:46.460Z,14.43
2022-11-15T01:09:48.096Z,12.68
2022-11-15T01:12:50.495Z,12.20
2022-11-15T01:15:52.097Z,11.27
2022-11-15T01:18:53.679Z,10.80
2022-11-15T01:21:55.328Z,12.07
2022-11-15T01:24:56.925Z,10.52
2022-11-15T01:27:58.485Z,10.80
2022-11-15T01:31:05.339Z,9.77
2022-11-15T01:34:06.970Z,11.73
2022-11-15T01:37:08.610Z,11.82
2022-11-15T01:40:10.598Z,12.80
2022-11-15T01:43:30.988Z,12.82
2022-11-15T01:46:36.445Z,12.65
2022-11-15T01:49:41.919Z,12.25
2022-11-15T01:52:44.005Z,12.85
2022-11-15T01:55:45.739Z,13.43
2022-11-15T01:58:47.723Z,11.60
2022-11-15T02:01:49.379Z,11.73
2022-11-15T02:04:51.073Z,12.40
2022-11-15T02:07:52.847Z,11.35
2022-11-15T02:10:54.448Z,11.18
2022-11-15T02:13:58.886Z,12.32
2022-11-15T02:17:22.876Z,11.27
2022-11-15T02:20:47.361Z,11.57
2022-11-15T02:24:07.669Z,12.43
2022-11-15T02:27:24.390Z,11.60
2022-11-15T02:30:55.507Z,12.20
2022-11-15T02:34:31.158Z,12.32
2022-11-15T02:38:02.781Z,12.02
2022-11-15T02:41:09.925Z,11.75
2022-11-15T02:44:21.159Z,11.82
2022-11-15T02:47:25.635Z,12.63
2022-11-15T02:50:30.444Z,12.15
2022-11-15T02:53:32.364Z,12.82
2022-11-15T02:56:34.636Z,12.93
2022-11-15T02:59:42.390Z,13.13
2022-11-15T03:02:59.963Z,12.75
2022-11-15T03:06:33.777Z,12.40
2022-11-15T03:09:43.537Z,12.40
2022-11-15T03:12:54.990Z,14.05
2022-11-15T03:16:05.445Z,12.85
2022-11-15T03:19:29.890Z,13.35
2022-11-15T03:22:36.930Z,12.65
2022-11-15T03:25:43.957Z,13.07
2022-11-15T03:28:53.514Z,13.50
2022-11-15T03:32:07.563Z,14.05
2022-11-15T03:35:12.853Z,14.10
2022-11-15T03:38:24.689Z,13.27
2022-11-15T03:41:36.237Z,14.43
2022-11-15T03:45:02.570Z,13.95
2022-11-15T03:48:14.616Z,13.18
2022-11-15T03:51:16.777Z,13.52
2022-11-15T03:54:18.668Z,13.82
2022-11-15T03:57:20.489Z,14.50
2022-11-15T04:00:22.249Z,14.00
2022-11-15T04:03:23.864Z,14.48
2022-11-15T04:06:25.470Z,14.77
2022-11-15T04:09:27.057Z,13.00
2022-11-15T04:12:32.119Z,12.55
2022-11-15T04:15:34.333Z,13.10
2022-11-15T04:18:35.899Z,12.25
2022-11-15T04:21:56.037Z,12.32
2022-11-15T04:24:57.586Z,11.80
2022-11-15T04:27:59.209Z,11.38
2022-11-15T04:31:01.032Z,12.40
2022-11-15T04:34:02.643Z,12.37
2022-11-15T04:37:13.155Z,13.32
2022-11-15T04:40:14.761Z,11.77
2022-11-15T04:43:16.515Z,12.15
2022-11-15T04:46:18.397Z,12.57
2022-11-15T04:49:19.962Z,11.95
2022-11-15T04:52:21.589Z,11.88
2022-11-15T04:55:23.505Z,12.30
2022-11-15T04:58:25.106Z,11.98
2022-11-15T05:01:26.856Z,11.57
2022-11-15T05:04:28.503Z,11.98
2022-11-15T05:07:30.157Z,12.30
2022-11-15T05:10:55.962Z,12.68
2022-11-15T05:13:57.704Z,12.75
2022-11-15T05:16:59.272Z,12.45
2022-11-15T05:20:01.464Z,13.60
2022-11-15T05:23:03.090Z,12.32
2022-11-15T05:26:09.149Z,13.38
2022-11-15T05:29:12.155Z,13.05
2022-11-15T05:32:14.294Z,13.05
2022-11-15T05:35:26.580Z,13.50
2022-11-15T05:38:29.208Z,14.50
2022-11-15T05:41:36.661Z,15.55
2022-11-15T05:44:42.607Z,14.13
2022-11-15T05:47:45.181Z,15.10
2022-11-15T05:50:48.692Z,13.62
2022-11-15T05:53:52.407Z,14.38
2022-11-15T05:56:55.982Z,15.85
2022-11-15T05:59:57.849Z,15.30
2022-11-15T06:03:17.027Z,16.35
2022-11-15T06:06:18.604Z,14.93
2022-11-15T06:09:20.306Z,15.65
2022-11-15T06:12:21.943Z,16.12
2022-11-15T06:15:23.553Z,17.48
2022-11-15T06:18:37.600Z,15.57
2022-11-15T06:21:39.232Z,14.15
2022-11-15T06:24:52.956Z,16.02
2022-11-15T06:28:07.166Z,15.23
2022-11-15T06:31:20.840Z,16.65
2022-11-15T06:34:22.419Z,15.63
2022-11-15T06:37:24.075Z,15.77
2022-11-15T06:40:39.351Z,15.48
2022-11-15T06:43:53.015Z,18.55
2022-11-15T06:46:55.067Z,16.15
2022-11-15T06:49:56.677Z,15.48
2022-11-15T06:53:10.196Z,15.65
2022-11-15T06:56:23.994Z,14.68
2022-11-15T06:59:40.651Z,15.10
2022-11-15T07:02:51.992Z,15.70
2022-11-15T07:06:07.791Z,16.77
2022-11-15T07:09:20.023Z,17.87
2022-11-15T07:12:33.679Z,13.82
2022-11-15T07:15:47.075Z,13.48
2022-11-15T07:18:48.687Z,20.58
2022-11-15T07:22:02.006Z,17.98
2022-11-15T07:25:16.111Z,13.35
2022-11-15T07:28:17.827Z,13.82
2022-11-15T07:31:31.096Z,15.32
2022-11-15T07:34:43.952Z,16.08
2022-11-15T07:37:45.523Z,21.67
2022-11-15T07:40:48.006Z,13.80
2022-11-15T07:43:53.639Z,13.60
2022-11-15T07:46:55.252Z,14.82
2022-11-15T07:49:56.872Z,14.95
2022-11-15T07:53:11.741Z,15.32
2022-11-15T07:56:13.695Z,15.02
2022-11-15T07:59:15.274Z,16.37
2022-11-15T08:02:18.916Z,15.23
2022-11-15T08:05:20.687Z,13.95
2022-11-15T08:08:22.273Z,16.42
2022-11-15T08:11:23.854Z,14.43
2022-11-15T08:14:25.467Z,16.12
2022-11-15T08:17:27.492Z,15.93
2022-11-15T08:20:33.405Z,15.73
2022-11-15T08:23:35.195Z,17.10
2022-11-15T08:26:37.112Z,17.90
2022-11-15T08:29:38.660Z,17.60
2022-11-15T08:32:40.341Z,18.98
2022-11-15T08:35:43.345Z,18.15
2022-11-15T08:38:45.016Z,18.10
2022-11-15T08:41:46.613Z,18.70
2022-11-15T08:44:48.189Z,17.55
2022-11-15T08:47:54.244Z,18.08
2022-11-15T08:50:57.405Z,18.42
2022-11-15T08:53:59.113Z,18.08
2022-11-15T08:57:00.684Z,18.67
2022-11-15T09:00:02.389Z,19.20
2022-11-15T09:03:08.105Z,17.83
2022-11-15T09:06:10.215Z,18.25
2022-11-15T09:09:11.797Z,18.48
2022-11-15T09:12:13.443Z,18.37
2022-11-15T09:15:17.056Z,19.52
2022-11-15T09:18:18.606Z,18.50
2022-11-15T09:21:20.235Z,19.45
2022-11-15T09:24:21.979Z,19.58
2022-11-15T09:27:23.702Z,18.73
2022-11-15T09:30:26.427Z,17.98
2022-11-15T09:33:29.090Z,19.45
2022-11-15T09:36:31.010Z,18.70
2022-11-15T09:39:32.620Z,19.23
2022-11-15T09:43:06.036Z,18.48
2022-11-15T09:46:26.357Z,17.35
2022-11-15T09:49:30.573Z,17.60
2022-11-15T09:52:32.142Z,16.00
2022-11-15T09:55:46.047Z,16.27
2022-11-15T09:58:59.755Z,16.05
2022-11-15T10:02:22.713Z,15.75
2022-11-15T10:05:26.369Z,15.80
2022-11-15T10:08:55.976Z,16.60
2022-11-15T10:11:57.752Z,16.42
2022-11-15T10:15:06.282Z,17.52
2022-11-15T10:18:29.488Z,15.88
2022-11-15T10:21:51.614Z,15.70
2022-11-15T10:25:02.287Z,15.85
2022-11-15T10:28:30.346Z,15.07
2022-11-15T10:31:32.275Z,16.30
2022-11-15T10:34:37.125Z,17.60
2022-11-15T10:37:38.736Z,16.50
2022-11-15T10:40:42.432Z,17.02
2022-11-15T10:43:44.329Z,16.25
2022-11-15T10:46:49.724Z,16.75
2022-11-15T10:50:04.045Z,16.65
2022-11-15T10:53:21.340Z,17.10
2022-11-15T10:56:25.637Z,17.48
2022-11-15T10:59:33.678Z,15.90
2022-11-15T11:02:43.649Z,17.40
2022-11-15T11:05:45.224Z,17.05
2022-11-15T11:08:58.760Z,16.62
2022-11-15T11:12:01.562Z,17.92
2022-11-15T11:15:12.937Z,16.85
2022-11-15T11:18:29.469Z,17.87
2022-11-15T11:21:42.198Z,17.92
2022-11-15T11:25:02.519Z,18.52
2022-11-15T11:28:07.355Z,19.42
2022-11-15T11:31:36.307Z,17.60
2022-11-15T11:35:00.176Z,20.50
2022-11-15T11:38:31.228Z,18.33
2022-11-15T11:41:40.900Z,17.80
2022-11-15T11:45:11.040Z,16.87
2022-11-15T11:48:27.240Z,18.05
2022-11-15T11:51:35.447Z,18.25
2022-11-15T11:54:43.171Z,21.37
2022-11-15T11:57:59.970Z,18.15
2022-11-15T12:01:17.136Z,18.35
2022-11-15T12:04:37.757Z,20.87
2022-11-15T12:07:41.163Z,22.37
2022-11-15T12:10:49.891Z,23.38
2022-11-15T12:13:58.165Z,22.70
2022-11-15T12:17:00.378Z,24.27
2022-11-15T12:20:16.401Z,30.15
2022-11-15T12:23:24.098Z,33.20
2022-11-15T12:26:36.236Z,38.50
2022-11-15T12:29:42.697Z,27.58
2022-11-15T12:33:39.950Z,25.08
2022-11-15T12:36:44.473Z,20.80
2022-11-15T12:40:05.232Z,23.02
2022-11-15T12:43:09.611Z,21.12
2022-11-15T12:46:22.584Z,22.77
2022-11-15T12:49:24.100Z,22.08
2022-11-15T12:52:25.742Z,22.15
2022-11-15T12:55:33.397Z,23.70
2022-11-15T12:58:48.418Z,26.73
2022-11-15T13:01:51.409Z,34.67
2022-11-15T13:04:56.627Z,31.85
2022-11-15T13:07:59.844Z,30.37
2022-11-15T13:11:40.045Z,27.27
2022-11-15T13:14:50.679Z,24.92
2022-11-15T13:17:57.095Z,30.00
2022-11-15T13:21:02.358Z,34.08
2022-11-15T13:24:05.352Z,29.40
2022-11-15T13:27:20.416Z,27.65
2022-11-15T13:30:25.045Z,27.58
2022-11-15T13:33:35.979Z,31.55
2022-11-15T13:36:38.110Z,25.02
2022-11-15T13:39:39.737Z,26.87
2022-11-15T13:42:45.587Z,27.48
2022-11-15T13:46:08.970Z,31.90
2022-11-15T13:49:13.866Z,28.25
2022-11-15T13:52:18.004Z,25.48
2022-11-15T13:55:23.897Z,26.85
2022-11-15T13:58:25.669Z,26.42
2022-11-15T14:01:32.352Z,24.92
2022-11-15T14:04:35.272Z,25.77
2022-11-15T14:07:43.268Z,27.60
2022-11-15T14:10:45.965Z,23.73
2022-11-15T14:14:16.666Z,23.95
2022-11-15T14:17:33.835Z,23.85
2022-11-15T14:20:39.024Z,24.20
2022-11-15T14:23:40.995Z,24.85
2022-11-15T14:26:43.253Z,24.37
2022-11-15T14:29:44.850Z,25.55
2022-11-15T14:32:48.958Z,23.45
2022-11-15T14:35:54.114Z,54.83
2022-11-15T14:38:56.069Z,34.47
2022-11-15T14:41:57.644Z,23.15
2022-11-15T14:44:59.551Z,28.48
2022-11-15T14:48:01.120Z,26.58
2022-11-15T14:51:02.691Z,23.48
2022-11-15T14:54:04.261Z,23.40
2022-11-15T14:57:05.784Z,31.92
2022-11-15T15:00:09.804Z,29.67
2022-11-15T15:03:11.474Z,32.03
2022-11-15T15:06:18.065Z,29.40
2022-11-15T15:09:20.158Z,28.55
2022-11-15T15:12:24.282Z,29.95
2022-11-15T15:15:31.083Z,34.03
2022-11-15T15:18:32.992Z,35.20
2022-11-15T15:21:37.615Z,41.30
2022-11-15T15:24:39.378Z,29.45
2022-11-15T15:27:40.950Z,23.00
2022-11-15T15:30:42.599Z,26.30
2022-11-15T15:33:44.869Z,28.75
2022-11-15T15:36:46.428Z,37.95
2022-11-15T15:39:48.008Z,30.80
2022-11-15T15:42:50.193Z,28.95
2022-11-15T15:45:51.849Z,27.98
2022-11-15T15:48:53.400Z,27.37
2022-11-15T15:51:55.010Z,29.00
2022-11-15T15:54:56.692Z,36.88
2022-11-15T15:57:58.636Z,28.98
2022-11-15T16:01:00.314Z,32.10
2022-11-15T16:04:01.974Z,36.42
2022-11-15T16:07:04.916Z,34.35
2022-11-15T16:10:26.736Z,32.10
2022-11-15T16:13:28.331Z,33.58
2022-11-15T16:16:29.932Z,38.05
2022-11-15T16:19:31.550Z,44.45
2022-11-15T16:22:33.120Z,40.83
2022-11-15T16:25:40.842Z,39.78
2022-11-15T16:28:42.424Z,48.25
2022-11-15T16:31:43.997Z,52.10
2022-11-15T16:34:49.069Z,40.03
2022-11-15T16:37:51.377Z,39.45
2022-11-15T16:40:52.966Z,41.45
2022-11-15T16:43:54.518Z,70.15
2022-11-15T16:46:56.418Z,77.85
2022-11-15T16:49:58.082Z,45.53
2022-11-15T16:53:00.125Z,42.13
2022-11-15T16:56:02.059Z,45.80
2022-11-15T16:59:03.877Z,39.63
2022-11-15T17:02:12.353Z,38.13
2022-11-15T17:05:19.920Z,32.60
2022-11-15T17:08:22.628Z,30.45
2022-11-15T17:11:24.496Z,34.08
2022-11-15T17:14:26.542Z,37.53
2022-11-15T17:17:31.344Z,35.10
2022-11-15T17:20:33.359Z,39.22
2022-11-15T17:23:35.067Z,42.08
2022-11-15T17:26:40.819Z,43.60
2022-11-15T17:29:43.049Z,34.17
2022-11-15T17:32:45.082Z,34.55
2022-11-15T17:35:46.975Z,31.90
2022-11-15T17:38:56.695Z,34.53
2022-11-15T17:42:00.793Z,34.05
2022-11-15T17:45:08.112Z,32.83
2022-11-15T17:48:11.396Z,33.05
2022-11-15T17:51:16.265Z,35.92
2022-11-15T17:54:18.235Z,32.40
2022-11-15T17:57:19.897Z,39.75
2022-11-15T18:00:23.211Z,33.50
2022-11-15T18:03:24.960Z,35.72
2022-11-15T18:06:28.618Z,32.17
2022-11-15T18:09:30.901Z,32.95
2022-11-15T18:12:33.781Z,31.62
2022-11-15T18:15:35.685Z,31.27
2022-11-15T18:18:37.872Z,36.47
2022-11-15T18:21:57.088Z,45.28
2022-11-15T18:24:59.184Z,44.97
2022-11-15T18:28:01.224Z,36.60
2022-11-15T18:31:05.085Z,34.60
2022-11-15T18:34:07.092Z,32.08
2022-11-15T18:37:09.529Z,33.92
2022-11-15T18:40:11.390Z,34.13
2022-11-15T18:43:12.979Z,33.83
2022-11-15T18:46:17.460Z,36.53
2022-11-15T18:49:20.449Z,39.13
2022-11-15T18:52:22.655Z,33.20
2022-11-15T18:55:24.424Z,34.05
2022-11-15T18:58:29.517Z,33.47
2022-11-15T19:01:34.616Z,33.88
2022-11-15T19:04:36.326Z,34.08
2022-11-15T19:07:38.437Z,33.10
2022-11-15T19:10:40.461Z,33.85
2022-11-15T19:13:43.251Z,33.05
2022-11-15T19:16:52.594Z,33.10
2022-11-15T19:19:57.400Z,33.67
2022-11-15T19:22:59.333Z,33.20
2022-11-15T19:26:02.654Z,33.80
2022-11-15T19:29:06.354Z,33.13
2022-11-15T19:32:08.407Z,32.95
2022-11-15T19:35:10.152Z,32.15
2022-11-15T19:38:12.139Z,31.08
2022-11-15T19:41:25.866Z,32.72
2022-11-15T19:44:28.752Z,33.95
2022-11-15T19:47:30.745Z,33.88
2022-11-15T19:50:32.720Z,34.03
2022-11-15T19:53:34.976Z,32.85
2022-11-15T19:56:38.297Z,33.95
2022-11-15T19:59:40.285Z,35.83
2022-11-15T20:02:41.952Z,36.20
2022-11-15T20:05:44.479Z,36.72
2022-11-15T20:08:48.095Z,40.42
2022-11-15T20:11:49.733Z,39.47
2022-11-15T20:14:51.456Z,46.97
2022-11-15T20:17:53.330Z,46.17
2022-11-15T20:20:56.719Z,42.75
2022-11-15T20:23:58.399Z,44.22
2022-11-15T20:27:00.114Z,46.65
2022-11-15T20:30:02.066Z,48.65
2022-11-15T20:33:03.986Z,41.00
2022-11-15T20:36:07.805Z,39.22
2022-11-15T20:39:09.484Z,43.40
2022-11-15T20:42:11.607Z,43.08
2022-11-15T20:45:13.561Z,45.33
2022-11-15T20:48:16.067Z,44.80
2022-11-15T20:51:19.244Z,44.33
2022-11-15T20:54:20.916Z,46.10
2022-11-15T20:57:22.493Z,39.35
2022-11-15T21:00:26.100Z,39.45
2022-11-15T21:03:28.056Z,41.70
2022-11-15T21:06:29.820Z,40.03
2022-11-15T21:09:49.881Z,39.10
2022-11-15T21:12:52.020Z,39.30
2022-11-15T21:15:58.084Z,36.90
2022-11-15T21:18:59.921Z,35.67
2022-11-15T21:22:02.703Z,35.78
2022-11-15T21:25:04.834Z,40.88
2022-11-15T21:28:06.538Z,37.42
2022-11-15T21:31:08.941Z,37.08
2022-11-15T21:34:10.782Z,38.50
2022-11-15T21:37:12.644Z,39.50
2022-11-15T21:40:14.221Z,38.47
2022-11-15T21:43:15.788Z,38.35
2022-11-15T21:46:17.724Z,38.20
2022-11-15T21:49:20.843Z,36.60
2022-11-15T21:52:22.441Z,37.40
2022-11-15T21:55:24.089Z,36.45
2022-11-15T21:58:25.804Z,37.67
2022-11-15T22:01:47.390Z,40.80
2022-11-15T22:04:48.971Z,39.45
2022-11-15T22:07:50.554Z,39.67
2022-11-15T22:10:53.039Z,41.55
2022-11-15T22:13:54.875Z,41.22
2022-11-15T22:16:56.462Z,38.95
2022-11-15T22:19:58.043Z,40.92
2022-11-15T22:22:59.994Z,43.08
2022-11-15T22:26:02.219Z,39.28
2022-11-15T22:29:03.822Z,42.53
2022-11-15T22:32:05.510Z,40.47
2022-11-15T22:35:07.857Z,40.10
2022-11-15T22:38:10.225Z,39.50
2022-11-15T22:41:11.918Z,40.90
2022-11-15T22:44:13.523Z,40.12
2022-11-15T22:47:15.105Z,41.80
2022-11-15T22:50:17.141Z,39.03
2022-11-15T22:53:19.593Z,38.15
2022-11-15T22:56:21.155Z,37.85
2022-11-15T22:59:22.741Z,38.35
2022-11-15T23:02:26.611Z,38.75
2022-11-15T23:05:28.249Z,38.88
2022-11-15T23:08:30.208Z,41.00
2022-11-15T23:11:50.328Z,38.67
2022-11-15T23:14:51.893Z,41.72
2022-11-15T23:17:53.469Z,39.75
2022-11-15T23:20:55.539Z,40.22
2022-11-15T23:23:57.114Z,37.90
2022-11-15T23:27:04.680Z,38.40
2022-11-15T23:33:45.419Z,39.97
2022-11-15T23:36:47.123Z,39.05
2022-11-15T23:39:48.702Z,38.97
2022-11-15T23:42:50.427Z,39.08
2022-11-15T23:45:52.100Z,40.30
2022-11-15T23:48:53.735Z,37.83
2022-11-15T23:51:55.387Z,40.30
2022-11-15T23:54:56.982Z,40.10
2022-11-15T23:57:58.566Z,40.50
